sensor_id;sensor_type;location;lat;lon;timestamp;pressure;altitude;pressure_sealevel;temperature
65272;BMP280;51868;48.812;8.198;2023-05-16T00:01:04;100130.63;;;15.87
65272;BMP280;51868;48.812;8.198;2023-05-16T00:03:33;100135.56;;;15.89
65272;BMP280;51868;48.812;8.198;2023-05-16T00:06:04;100129.25;;;15.88
65272;BMP280;51868;48.812;8.198;2023-05-16T00:08:31;100126.47;;;15.90
65272;BMP280;51868;48.812;8.198;2023-05-16T00:10:59;100119.56;;;15.93
65272;BMP280;51868;48.812;8.198;2023-05-16T00:13:28;100130.78;;;15.96
65272;BMP280;51868;48.812;8.198;2023-05-16T00:15:56;100126.47;;;15.90
65272;BMP280;51868;48.812;8.198;2023-05-16T00:18:27;100129.97;;;15.89
65272;BMP280;51868;48.812;8.198;2023-05-16T00:20:55;100126.31;;;15.82
65272;BMP280;51868;48.812;8.198;2023-05-16T00:23:25;100125.53;;;15.78
65272;BMP280;51868;48.812;8.198;2023-05-16T00:25:53;100124.13;;;15.79
65272;BMP280;51868;48.812;8.198;2023-05-16T00:28:21;100119.22;;;15.79
65272;BMP280;51868;48.812;8.198;2023-05-16T00:30:49;100117.88;;;15.80
65272;BMP280;51868;48.812;8.198;2023-05-16T00:33:17;100117.84;;;15.78
65272;BMP280;51868;48.812;8.198;2023-05-16T00:35:45;100119.88;;;15.76
65272;BMP280;51868;48.812;8.198;2023-05-16T00:38:14;100114.97;;;15.76
65272;BMP280;51868;48.812;8.198;2023-05-16T00:40:44;100121.94;;;15.75
65272;BMP280;51868;48.812;8.198;2023-05-16T00:43:12;100125.38;;;15.72
65272;BMP280;51868;48.812;8.198;2023-05-16T00:45:39;100126.66;;;15.66
65272;BMP280;51868;48.812;8.198;2023-05-16T00:48:08;100131.44;;;15.62
65272;BMP280;51868;48.812;8.198;2023-05-16T00:50:36;100125.03;;;15.57
65272;BMP280;51868;48.812;8.198;2023-05-16T00:53:04;100125.03;;;15.57
65272;BMP280;51868;48.812;8.198;2023-05-16T00:55:32;100118.72;;;15.57
65272;BMP280;51868;48.812;8.198;2023-05-16T00:58:01;100115.94;;;15.57
65272;BMP280;51868;48.812;8.198;2023-05-16T01:00:29;100119.44;;;15.57
65272;BMP280;51868;48.812;8.198;2023-05-16T01:02:58;100118.00;;;15.56
65272;BMP280;51868;48.812;8.198;2023-05-16T01:05:27;100113.09;;;15.55
65272;BMP280;51868;48.812;8.198;2023-05-16T01:07:55;100122.06;;;15.51
65272;BMP280;51868;48.812;8.198;2023-05-16T01:10:24;100119.13;;;15.45
65272;BMP280;51868;48.812;8.198;2023-05-16T01:13:04;100119.13;;;15.45
65272;BMP280;51868;48.812;8.198;2023-05-16T01:15:40;100115.63;;;15.45
65272;BMP280;51868;48.812;8.198;2023-05-16T01:18:17;100126.81;;;15.45
65272;BMP280;51868;48.812;8.198;2023-05-16T01:20:52;100118.47;;;15.47
65272;BMP280;51868;48.812;8.198;2023-05-16T01:23:34;100124.84;;;15.49
65272;BMP280;51868;48.812;8.198;2023-05-16T01:26:13;100124.22;;;15.53
65272;BMP280;51868;48.812;8.198;2023-05-16T01:28:43;100117.97;;;15.54
65272;BMP280;51868;48.812;8.198;2023-05-16T01:31:11;100113.03;;;15.53
65272;BMP280;51868;48.812;8.198;2023-05-16T01:33:39;100108.75;;;15.50
65272;BMP280;51868;48.812;8.198;2023-05-16T01:36:11;100118.47;;;15.47
65272;BMP280;51868;48.812;8.198;2023-05-16T01:38:44;100117.06;;;15.46
65272;BMP280;51868;48.812;8.198;2023-05-16T01:41:18;100117.72;;;15.44
65272;BMP280;51868;48.812;8.198;2023-05-16T01:43:50;100120.47;;;15.42
65272;BMP280;51868;48.812;8.198;2023-05-16T01:46:20;100126.69;;;15.38
65272;BMP280;51868;48.812;8.198;2023-05-16T01:48:52;100119.59;;;15.35
65272;BMP280;51868;48.812;8.198;2023-05-16T01:51:21;100126.56;;;15.34
65272;BMP280;51868;48.812;8.198;2023-05-16T01:53:51;100128.66;;;15.34
65272;BMP280;51868;48.812;8.198;2023-05-16T01:56:20;100127.97;;;15.35
65272;BMP280;51868;48.812;8.198;2023-05-16T01:58:49;100132.84;;;15.35
65272;BMP280;51868;48.812;8.198;2023-05-16T02:01:18;100132.75;;;15.31
65272;BMP280;51868;48.812;8.198;2023-05-16T02:03:46;100135.44;;;15.27
65272;BMP280;51868;48.812;8.198;2023-05-16T02:06:14;100143.13;;;15.26
65272;BMP280;51868;48.812;8.198;2023-05-16T02:08:41;100141.00;;;15.25
65272;BMP280;51868;48.812;8.198;2023-05-16T02:11:09;100131.88;;;15.24
65272;BMP280;51868;48.812;8.198;2023-05-16T02:13:38;100137.56;;;15.28
65272;BMP280;51868;48.812;8.198;2023-05-16T02:16:06;100136.25;;;15.31
65272;BMP280;51868;48.812;8.198;2023-05-16T02:18:34;100132.84;;;15.35
65272;BMP280;51868;48.812;8.198;2023-05-16T02:21:01;100132.22;;;15.36
65272;BMP280;51868;48.812;8.198;2023-05-16T02:23:29;100128.69;;;15.36
65272;BMP280;51868;48.812;8.198;2023-05-16T02:25:57;100125.25;;;15.37
65272;BMP280;51868;48.812;8.198;2023-05-16T02:28:25;100129.47;;;15.38
65272;BMP280;51868;48.812;8.198;2023-05-16T02:30:57;100127.41;;;15.39
65272;BMP280;51868;48.812;8.198;2023-05-16T02:33:32;100126.69;;;15.40
65272;BMP280;51868;48.812;8.198;2023-05-16T02:36:00;100127.44;;;15.41
65272;BMP280;51868;48.812;8.198;2023-05-16T02:38:28;100130.22;;;15.41
65272;BMP280;51868;48.812;8.198;2023-05-16T02:40:56;100130.88;;;15.39
65272;BMP280;51868;48.812;8.198;2023-05-16T02:43:24;100137.06;;;15.36
65272;BMP280;51868;48.812;8.198;2023-05-16T02:45:52;100128.69;;;15.36
65272;BMP280;51868;48.812;8.198;2023-05-16T02:48:21;100130.78;;;15.35
65272;BMP280;51868;48.812;8.198;2023-05-16T02:50:49;100127.88;;;15.31
65272;BMP280;51868;48.812;8.198;2023-05-16T02:53:17;100129.19;;;15.28
65272;BMP280;51868;48.812;8.198;2023-05-16T02:55:45;100125.66;;;15.26
65272;BMP280;51868;48.812;8.198;2023-05-16T02:58:12;100127.81;;;15.27
65272;BMP280;51868;48.812;8.198;2023-05-16T03:00:40;100127.81;;;15.27
65272;BMP280;51868;48.812;8.198;2023-05-16T03:03:08;100137.53;;;15.26
65272;BMP280;51868;48.812;8.198;2023-05-16T03:05:37;100135.41;;;15.25
65272;BMP280;51868;48.812;8.198;2023-05-16T03:08:04;100143.06;;;15.24
65272;BMP280;51868;48.812;8.198;2023-05-16T03:10:32;100141.00;;;15.25
65272;BMP280;51868;48.812;8.198;2023-05-16T03:12:59;100137.47;;;15.24
65272;BMP280;51868;48.812;8.198;2023-05-16T03:15:27;100145.16;;;15.24
65272;BMP280;51868;48.812;8.198;2023-05-16T03:17:55;100137.41;;;15.22
65272;BMP280;51868;48.812;8.198;2023-05-16T03:20:23;100141.63;;;15.21
65272;BMP280;51868;48.812;8.198;2023-05-16T03:22:52;100140.91;;;15.21
65272;BMP280;51868;48.812;8.198;2023-05-16T03:25:20;100145.13;;;15.22
65272;BMP280;51868;48.812;8.198;2023-05-16T03:27:47;100140.91;;;15.21
65272;BMP280;51868;48.812;8.198;2023-05-16T03:30:15;100142.31;;;15.22
65272;BMP280;51868;48.812;8.198;2023-05-16T03:32:44;100144.41;;;15.21
65272;BMP280;51868;48.812;8.198;2023-05-16T03:35:11;100147.69;;;15.13
65272;BMP280;51868;48.812;8.198;2023-05-16T03:37:39;100138.53;;;15.11
65272;BMP280;51868;48.812;8.198;2023-05-16T03:40:09;100143.41;;;15.10
65272;BMP280;51868;48.812;8.198;2023-05-16T03:42:37;100150.44;;;15.11
65272;BMP280;51868;48.812;8.198;2023-05-16T03:45:06;100149.69;;;15.09
65272;BMP280;51868;48.812;8.198;2023-05-16T03:47:34;100156.69;;;15.10
65272;BMP280;51868;48.812;8.198;2023-05-16T03:50:03;100158.78;;;15.09
65272;BMP280;51868;48.812;8.198;2023-05-16T03:52:30;100162.91;;;15.08
65272;BMP280;51868;48.812;8.198;2023-05-16T03:54:58;100165.69;;;15.06
65272;BMP280;51868;48.812;8.198;2023-05-16T03:57:30;100171.03;;;14.98
65272;BMP280;51868;48.812;8.198;2023-05-16T03:59:58;100170.91;;;14.94
65272;BMP280;51868;48.812;8.198;2023-05-16T04:02:25;100167.38;;;14.91
65272;BMP280;51868;48.812;8.198;2023-05-16T04:04:53;100171.53;;;14.90
65272;BMP280;51868;48.812;8.198;2023-05-16T04:07:21;100169.38;;;14.89
65272;BMP280;51868;48.812;8.198;2023-05-16T04:09:49;100185.44;;;14.88
65272;BMP280;51868;48.812;8.198;2023-05-16T04:12:17;100182.63;;;14.88
65272;BMP280;51868;48.812;8.198;2023-05-16T04:14:46;100182.63;;;14.88
65272;BMP280;51868;48.812;8.198;2023-05-16T04:17:14;100179.03;;;14.84
65272;BMP280;51868;48.812;8.198;2023-05-16T04:19:42;100173.44;;;14.84
65272;BMP280;51868;48.812;8.198;2023-05-16T04:22:09;100187.47;;;14.86
65272;BMP280;51868;48.812;8.198;2023-05-16T04:24:37;100182.59;;;14.86
65272;BMP280;51868;48.812;8.198;2023-05-16T04:27:05;100180.38;;;14.83
65272;BMP280;51868;48.812;8.198;2023-05-16T04:29:34;100188.03;;;14.82
65272;BMP280;51868;48.812;8.198;2023-05-16T04:32:04;100192.94;;;14.82
65272;BMP280;51868;48.812;8.198;2023-05-16T04:34:33;100187.94;;;14.78
65272;BMP280;51868;48.812;8.198;2023-05-16T04:37:05;100195.53;;;14.76
65272;BMP280;51868;48.812;8.198;2023-05-16T04:39:34;100192.00;;;14.73
65272;BMP280;51868;48.812;8.198;2023-05-16T04:42:02;100194.72;;;14.71
65272;BMP280;51868;48.812;8.198;2023-05-16T04:44:31;100193.28;;;14.70
65272;BMP280;51868;48.812;8.198;2023-05-16T04:46:59;100196.16;;;14.72
65272;BMP280;51868;48.812;8.198;2023-05-16T04:49:28;100196.25;;;14.76
65272;BMP280;51868;48.812;8.198;2023-05-16T04:51:56;100194.25;;;14.79
65272;BMP280;51868;48.812;8.198;2023-05-16T04:54:24;100203.28;;;14.77
65272;BMP280;51868;48.812;8.198;2023-05-16T04:56:52;100204.69;;;14.78
65272;BMP280;51868;48.812;8.198;2023-05-16T04:59:19;100199.72;;;14.75
65272;BMP280;51868;48.812;8.198;2023-05-16T05:01:47;100191.91;;;14.71
65272;BMP280;51868;48.812;8.198;2023-05-16T05:04:15;100205.69;;;14.63
65272;BMP280;51868;48.812;8.198;2023-05-16T05:06:44;100209.69;;;14.58
65272;BMP280;51868;48.812;8.198;2023-05-16T05:09:12;100209.56;;;14.54
65272;BMP280;51868;48.812;8.198;2023-05-16T05:11:40;100210.94;;;14.53
65272;BMP280;51868;48.812;8.198;2023-05-16T05:14:07;100214.34;;;14.49
65272;BMP280;51868;48.812;8.198;2023-05-16T05:16:35;100218.41;;;14.46
65272;BMP280;51868;48.812;8.198;2023-05-16T05:19:03;100224.66;;;14.44
65272;BMP280;51868;48.812;8.198;2023-05-16T05:21:31;100226.03;;;14.43
65272;BMP280;51868;48.812;8.198;2023-05-16T05:24:00;100230.19;;;14.42
65272;BMP280;51868;48.812;8.198;2023-05-16T05:26:27;100238.47;;;14.40
65272;BMP280;51868;48.812;8.198;2023-05-16T05:28:55;100238.38;;;14.36
65272;BMP280;51868;48.812;8.198;2023-05-16T05:31:31;100239.66;;;14.33
65272;BMP280;51868;48.812;8.198;2023-05-16T05:34:00;100238.13;;;14.28
65272;BMP280;51868;48.812;8.198;2023-05-16T05:36:28;100242.13;;;14.23
65272;BMP280;51868;48.812;8.198;2023-05-16T05:38:56;100243.50;;;14.22
65272;BMP280;51868;48.812;8.198;2023-05-16T05:41:25;100242.13;;;14.23
65272;BMP280;51868;48.812;8.198;2023-05-16T05:43:53;100242.84;;;14.24
65272;BMP280;51868;48.812;8.198;2023-05-16T05:46:21;100239.34;;;14.23
65272;BMP280;51868;48.812;8.198;2023-05-16T05:48:49;100244.28;;;14.25
65272;BMP280;51868;48.812;8.198;2023-05-16T05:51:17;100244.16;;;14.20
65272;BMP280;51868;48.812;8.198;2023-05-16T05:53:45;100244.75;;;14.17
65272;BMP280;51868;48.812;8.198;2023-05-16T05:56:12;100245.44;;;14.17
65272;BMP280;51868;48.812;8.198;2023-05-16T05:58:41;100241.94;;;14.17
65272;BMP280;51868;48.812;8.198;2023-05-16T06:01:09;100250.41;;;14.19
65272;BMP280;51868;48.812;8.198;2023-05-16T06:03:40;100259.53;;;14.21
65272;BMP280;51868;48.812;8.198;2023-05-16T06:06:08;100259.53;;;14.21
65272;BMP280;51868;48.812;8.198;2023-05-16T06:08:36;100259.47;;;14.19
65272;BMP280;51868;48.812;8.198;2023-05-16T06:11:03;100257.44;;;14.22
65272;BMP280;51868;48.812;8.198;2023-05-16T06:13:31;100256.06;;;14.23
65272;BMP280;51868;48.812;8.198;2023-05-16T06:16:00;100254.81;;;14.26
65272;BMP280;51868;48.812;8.198;2023-05-16T06:18:28;100260.44;;;14.28
65272;BMP280;51868;48.812;8.198;2023-05-16T06:20:56;100258.94;;;14.25
65272;BMP280;51868;48.812;8.198;2023-05-16T06:23:23;100261.03;;;14.25
65272;BMP280;51868;48.812;8.198;2023-05-16T06:25:53;100278.47;;;14.25
65272;BMP280;51868;48.812;8.198;2023-05-16T06:28:22;100270.09;;;14.25
65272;BMP280;51868;48.812;8.198;2023-05-16T06:30:50;100277.91;;;14.29
65272;BMP280;51868;48.812;8.198;2023-05-16T06:33:25;100283.44;;;14.27
65272;BMP280;51868;48.812;8.198;2023-05-16T06:35:53;100275.69;;;14.25
65272;BMP280;51868;48.812;8.198;2023-05-16T06:38:20;100290.38;;;14.26
65272;BMP280;51868;48.812;8.198;2023-05-16T06:40:57;100292.44;;;14.25
65272;BMP280;51868;48.812;8.198;2023-05-16T06:43:32;100298.03;;;14.25
65272;BMP280;51868;48.812;8.198;2023-05-16T06:50:02;100300.72;;;14.23
65272;BMP280;51868;48.812;8.198;2023-05-16T06:52:33;100292.38;;;14.23
65272;BMP280;51868;48.812;8.198;2023-05-16T06:55:01;100293.72;;;14.22
65272;BMP280;51868;48.812;8.198;2023-05-16T06:57:32;100297.09;;;14.18
65272;BMP280;51868;48.812;8.198;2023-05-16T07:00:02;100302.06;;;14.20
65272;BMP280;51868;48.812;8.198;2023-05-16T07:02:30;100301.41;;;14.21
65272;BMP280;51868;48.812;8.198;2023-05-16T07:04:58;100304.91;;;14.22
65272;BMP280;51868;48.812;8.198;2023-05-16T07:07:28;100306.22;;;14.19
65272;BMP280;51868;48.812;8.198;2023-05-16T07:09:55;100303.34;;;14.17
65272;BMP280;51868;48.812;8.198;2023-05-16T07:12:23;100308.84;;;14.15
65272;BMP280;51868;48.812;8.198;2023-05-16T07:14:52;100308.78;;;14.13
65272;BMP280;51868;48.812;8.198;2023-05-16T07:17:19;100314.38;;;14.13
65272;BMP280;51868;48.812;8.198;2023-05-16T07:19:49;100311.63;;;14.15
65272;BMP280;51868;48.812;8.198;2023-05-16T07:22:19;100299.78;;;14.14
65272;BMP280;51868;48.812;8.198;2023-05-16T07:24:59;100301.97;;;14.18
65272;BMP280;51868;48.812;8.198;2023-05-16T07:27:27;100304.78;;;14.18
65272;BMP280;51868;48.812;8.198;2023-05-16T07:29:56;100315.84;;;14.16
65272;BMP280;51868;48.812;8.198;2023-05-16T07:32:24;100313.78;;;14.16
65272;BMP280;51868;48.812;8.198;2023-05-16T07:34:52;100314.63;;;14.21
65272;BMP280;51868;48.812;8.198;2023-05-16T07:37:20;100318.16;;;14.21
65272;BMP280;51868;48.812;8.198;2023-05-16T07:39:48;100321.66;;;14.22
65272;BMP280;51868;48.812;8.198;2023-05-16T07:42:17;100313.22;;;14.20
65272;BMP280;51868;48.812;8.198;2023-05-16T07:44:45;100317.44;;;14.21
65272;BMP280;51868;48.812;8.198;2023-05-16T07:47:13;100317.47;;;14.23
65272;BMP280;51868;48.812;8.198;2023-05-16T07:49:41;100327.94;;;14.23
65272;BMP280;51868;48.812;8.198;2023-05-16T07:52:09;100325.16;;;14.23
65272;BMP280;51868;48.812;8.198;2023-05-16T07:54:39;100331.38;;;14.21
65272;BMP280;51868;48.812;8.198;2023-05-16T07:57:07;100322.97;;;14.19
65272;BMP280;51868;48.812;8.198;2023-05-16T07:59:36;100323.59;;;14.17
65272;BMP280;51868;48.812;8.198;2023-05-16T08:02:04;100337.47;;;14.15
65272;BMP280;51868;48.812;8.198;2023-05-16T08:04:32;100341.66;;;14.14
65272;BMP280;51868;48.812;8.198;2023-05-16T08:06:59;100331.81;;;14.13
65272;BMP280;51868;48.812;8.198;2023-05-16T08:09:28;100334.75;;;14.17
65272;BMP280;51868;48.812;8.198;2023-05-16T08:11:56;100339.72;;;14.19
65272;BMP280;51868;48.812;8.198;2023-05-16T08:14:39;100342.56;;;14.21
65272;BMP280;51868;48.812;8.198;2023-05-16T08:17:07;100347.47;;;14.23
65272;BMP280;51868;48.812;8.198;2023-05-16T08:19:34;100341.25;;;14.24
65272;BMP280;51868;48.812;8.198;2023-05-16T08:22:02;100349.72;;;14.26
65272;BMP280;51868;48.812;8.198;2023-05-16T08:24:33;100352.56;;;14.28
65272;BMP280;51868;48.812;8.198;2023-05-16T08:27:01;100352.69;;;14.32
65272;BMP280;51868;48.812;8.198;2023-05-16T08:29:28;100352.13;;;14.36
65272;BMP280;51868;48.812;8.198;2023-05-16T08:31:58;100352.94;;;14.40
65272;BMP280;51868;48.812;8.198;2023-05-16T08:34:29;100347.38;;;14.40
65272;BMP280;51868;48.812;8.198;2023-05-16T08:36:58;100355.63;;;14.36
65272;BMP280;51868;48.812;8.198;2023-05-16T08:39:26;100348.53;;;14.33
65272;BMP280;51868;48.812;8.198;2023-05-16T08:41:56;100353.44;;;14.33
65272;BMP280;51868;48.812;8.198;2023-05-16T08:44:24;100359.00;;;14.33
65272;BMP280;51868;48.812;8.198;2023-05-16T08:46:52;100359.63;;;14.31
65272;BMP280;51868;48.812;8.198;2023-05-16T08:49:22;100362.28;;;14.27
65272;BMP280;51868;48.812;8.198;2023-05-16T08:51:56;100366.47;;;14.26
65272;BMP280;51868;48.812;8.198;2023-05-16T08:54:24;100373.31;;;14.23
65272;BMP280;51868;48.812;8.198;2023-05-16T08:56:54;100373.97;;;14.21
65272;BMP280;51868;48.812;8.198;2023-05-16T08:59:23;100368.88;;;14.16
65272;BMP280;51868;48.812;8.198;2023-05-16T09:01:51;100374.34;;;14.12
65272;BMP280;51868;48.812;8.198;2023-05-16T09:04:19;100365.25;;;14.11
65272;BMP280;51868;48.812;8.198;2023-05-16T09:06:49;100365.91;;;14.10
65272;BMP280;51868;48.812;8.198;2023-05-16T09:09:17;100377.06;;;14.10
65272;BMP280;51868;48.812;8.198;2023-05-16T09:11:45;100370.09;;;14.11
65272;BMP280;51868;48.812;8.198;2023-05-16T09:14:12;100378.34;;;14.07
65272;BMP280;51868;48.812;8.198;2023-05-16T09:16:40;100375.59;;;14.09
65272;BMP280;51868;48.812;8.198;2023-05-16T09:19:11;100375.06;;;14.12
65272;BMP280;51868;48.812;8.198;2023-05-16T09:21:39;100379.41;;;14.17
65272;BMP280;51868;48.812;8.198;2023-05-16T09:24:15;100377.34;;;14.18
65272;BMP280;51868;48.812;8.198;2023-05-16T09:26:43;100376.03;;;14.21
65272;BMP280;51868;48.812;8.198;2023-05-16T09:29:11;100381.63;;;14.21
65272;BMP280;51868;48.812;8.198;2023-05-16T09:31:39;100380.13;;;14.18
65272;BMP280;51868;48.812;8.198;2023-05-16T09:34:08;100387.06;;;14.17
65272;BMP280;51868;48.812;8.198;2023-05-16T09:36:36;100382.19;;;14.17
65272;BMP280;51868;48.812;8.198;2023-05-16T09:39:07;100387.22;;;14.21
65272;BMP280;51868;48.812;8.198;2023-05-16T09:41:36;100385.91;;;14.24
65272;BMP280;51868;48.812;8.198;2023-05-16T09:44:04;100390.06;;;14.23
65272;BMP280;51868;48.812;8.198;2023-05-16T09:46:33;100390.13;;;14.25
65272;BMP280;51868;48.812;8.198;2023-05-16T09:49:01;100396.38;;;14.24
65272;BMP280;51868;48.812;8.198;2023-05-16T09:51:29;100397.59;;;14.18
65272;BMP280;51868;48.812;8.198;2023-05-16T09:53:57;100399.53;;;14.14
65272;BMP280;51868;48.812;8.198;2023-05-16T09:56:25;100400.81;;;14.11
65272;BMP280;51868;48.812;8.198;2023-05-16T09:58:55;100399.38;;;14.10
65272;BMP280;51868;48.812;8.198;2023-05-16T10:01:24;100400.03;;;14.08
65272;BMP280;51868;48.812;8.198;2023-05-16T10:03:52;100402.66;;;14.04
65272;BMP280;51868;48.812;8.198;2023-05-16T10:06:23;100400.53;;;14.03
65272;BMP280;51868;48.812;8.198;2023-05-16T10:08:53;100403.09;;;13.96
65272;BMP280;51868;48.812;8.198;2023-05-16T10:11:22;100412.78;;;13.93
65272;BMP280;51868;48.812;8.198;2023-05-16T10:14:13;100407.19;;;13.93
65272;BMP280;51868;48.812;8.198;2023-05-16T10:16:48;100415.56;;;13.93
65272;BMP280;51868;48.812;8.198;2023-05-16T10:19:20;100412.84;;;13.95
65272;BMP280;51868;48.812;8.198;2023-05-16T10:21:52;100416.28;;;13.94
65272;BMP280;51868;48.812;8.198;2023-05-16T10:24:25;100417.53;;;13.91
65272;BMP280;51868;48.812;8.198;2023-05-16T10:26:55;100418.28;;;13.91
65272;BMP280;51868;48.812;8.198;2023-05-16T10:29:25;100420.41;;;13.93
65272;BMP280;51868;48.812;8.198;2023-05-16T10:31:59;100419.69;;;13.92
65272;BMP280;51868;48.812;8.198;2023-05-16T10:34:27;100419.69;;;13.92
65272;BMP280;51868;48.812;8.198;2023-05-16T10:36:56;100422.56;;;13.94
65272;BMP280;51868;48.812;8.198;2023-05-16T10:39:24;100416.41;;;13.98
65272;BMP280;51868;48.812;8.198;2023-05-16T10:41:54;100415.28;;;14.05
65272;BMP280;51868;48.812;8.198;2023-05-16T10:47:32;100407.53;;;14.24
65272;BMP280;51868;48.812;8.198;2023-05-16T10:50:09;100417.56;;;14.31
65272;BMP280;51868;48.812;8.198;2023-05-16T10:52:38;100412.91;;;14.37
65272;BMP280;51868;48.812;8.198;2023-05-16T10:55:08;100414.47;;;14.42
65272;BMP280;51868;48.812;8.198;2023-05-16T10:57:36;100407.63;;;14.48
65272;BMP280;51868;48.812;8.198;2023-05-16T11:00:07;100410.50;;;14.50
65272;BMP280;51868;48.812;8.198;2023-05-16T11:02:40;100411.94;;;14.51
65272;BMP280;51868;48.812;8.198;2023-05-16T11:05:12;100419.03;;;14.54
65272;BMP280;51868;48.812;8.198;2023-05-16T11:07:41;100410.72;;;14.56
65272;BMP280;51868;48.812;8.198;2023-05-16T11:10:19;100421.81;;;14.54
65272;BMP280;51868;48.812;8.198;2023-05-16T11:12:48;100429.25;;;14.47
65272;BMP280;51868;48.812;8.198;2023-05-16T11:15:19;100426.97;;;14.41
65272;BMP280;51868;48.812;8.198;2023-05-16T11:17:49;100432.44;;;14.37
65272;BMP280;51868;48.812;8.198;2023-05-16T11:20:29;100441.31;;;14.32
65272;BMP280;51868;48.812;8.198;2023-05-16T11:23:18;100448.19;;;14.29
65272;BMP280;51868;48.812;8.198;2023-05-16T11:25:49;100450.13;;;14.24
65272;BMP280;51868;48.812;8.198;2023-05-16T11:28:23;100463.22;;;14.19
65272;BMP280;51868;48.812;8.198;2023-05-16T11:30:52;100472.09;;;14.14
65272;BMP280;51868;48.812;8.198;2023-05-16T11:33:24;100469.00;;;14.06
65272;BMP280;51868;48.812;8.198;2023-05-16T11:36:00;100472.84;;;13.96
65272;BMP280;51868;48.812;8.198;2023-05-16T11:38:41;100471.22;;;13.89
65272;BMP280;51868;48.812;8.198;2023-05-16T11:41:09;100473.75;;;13.83
65272;BMP280;51868;48.812;8.198;2023-05-16T11:43:42;100477.84;;;13.80
65272;BMP280;51868;48.812;8.198;2023-05-16T11:46:10;100468.09;;;13.81
65272;BMP280;51868;48.812;8.198;2023-05-16T11:48:41;100466.75;;;13.82
65272;BMP280;51868;48.812;8.198;2023-05-16T11:51:11;100473.75;;;13.83
65272;BMP280;51868;48.812;8.198;2023-05-16T11:53:43;100476.72;;;13.87
65272;BMP280;51868;48.812;8.198;2023-05-16T11:56:11;100478.19;;;13.90
65272;BMP280;51868;48.812;8.198;2023-05-16T11:58:39;100469.91;;;13.92
65272;BMP280;51868;48.812;8.198;2023-05-16T12:01:08;100479.78;;;13.95
65272;BMP280;51868;48.812;8.198;2023-05-16T12:03:36;100482.63;;;13.97
65272;BMP280;51868;48.812;8.198;2023-05-16T12:06:06;100482.63;;;13.97
65272;BMP280;51868;48.812;8.198;2023-05-16T12:08:34;100475.81;;;14.01
65272;BMP280;51868;48.812;8.198;2023-05-16T12:11:02;100481.31;;;13.99
65272;BMP280;51868;48.812;8.198;2023-05-16T12:13:30;100478.66;;;14.03
65272;BMP280;51868;48.812;8.198;2023-05-16T12:15:58;100480.09;;;14.04
65272;BMP280;51868;48.812;8.198;2023-05-16T12:18:26;100489.25;;;14.06
65272;BMP280;51868;48.812;8.198;2023-05-16T12:20:54;100490.81;;;14.11
65272;BMP280;51868;48.812;8.198;2023-05-16T12:23:25;100494.28;;;14.10
65272;BMP280;51868;48.812;8.198;2023-05-16T12:25:53;100496.41;;;14.11
65272;BMP280;51868;48.812;8.198;2023-05-16T12:28:23;100502.59;;;14.08
65272;BMP280;51868;48.812;8.198;2023-05-16T12:30:51;100501.13;;;14.07
65272;BMP280;51868;48.812;8.198;2023-05-16T12:33:18;100502.41;;;14.04
65272;BMP280;51868;48.812;8.198;2023-05-16T12:35:47;100509.34;;;14.03
65272;BMP280;51868;48.812;8.198;2023-05-16T12:38:18;100500.97;;;14.03
65272;BMP280;51868;48.812;8.198;2023-05-16T12:40:47;100506.56;;;14.03
65272;BMP280;51868;48.812;8.198;2023-05-16T12:43:15;100514.22;;;14.02
65272;BMP280;51868;48.812;8.198;2023-05-16T12:45:49;100508.63;;;14.02
65272;BMP280;51868;48.812;8.198;2023-05-16T12:48:17;100508.00;;;14.04
65272;BMP280;51868;48.812;8.198;2023-05-16T12:50:45;100516.31;;;14.02
65272;BMP280;51868;48.812;8.198;2023-05-16T12:53:50;100523.25;;;14.01
65272;BMP280;51868;48.812;8.198;2023-05-16T12:56:37;100519.00;;;14.00
65272;BMP280;51868;48.812;8.198;2023-05-16T12:59:05;100519.09;;;14.02
65272;BMP280;51868;48.812;8.198;2023-05-16T13:01:32;100523.31;;;14.03
65272;BMP280;51868;48.812;8.198;2023-05-16T13:04:01;100528.75;;;13.99
65272;BMP280;51868;48.812;8.198;2023-05-16T13:06:30;100521.00;;;13.97
65272;BMP280;51868;48.812;8.198;2023-05-16T13:09:18;100529.31;;;13.95
65272;BMP280;51868;48.812;8.198;2023-05-16T13:11:47;100529.34;;;13.97
65272;BMP280;51868;48.812;8.198;2023-05-16T13:14:15;100536.97;;;13.94
65272;BMP280;51868;48.812;8.198;2023-05-16T13:16:43;100541.59;;;13.88
65272;BMP280;51868;48.812;8.198;2023-05-16T13:19:11;100544.94;;;13.84
65272;BMP280;51868;48.812;8.198;2023-05-16T13:21:39;100539.34;;;13.84
65272;BMP280;51868;48.812;8.198;2023-05-16T13:24:07;100549.16;;;13.85
65272;BMP280;51868;48.812;8.198;2023-05-16T13:26:35;100540.88;;;13.87
65272;BMP280;51868;48.812;8.198;2023-05-16T13:29:05;100548.53;;;13.87
65272;BMP280;51868;48.812;8.198;2023-05-16T13:31:35;100543.81;;;13.91
65272;BMP280;51868;48.812;8.198;2023-05-16T13:34:03;100544.63;;;13.94
65272;BMP280;51868;48.812;8.198;2023-05-16T13:36:31;100553.00;;;13.94
65272;BMP280;51868;48.812;8.198;2023-05-16T13:39:19;100555.13;;;13.95
65272;BMP280;51868;48.812;8.198;2023-05-16T13:41:47;100553.13;;;13.98
65272;BMP280;51868;48.812;8.198;2023-05-16T13:44:17;100558.16;;;14.02
65272;BMP280;51868;48.812;8.198;2023-05-16T13:46:45;100552.13;;;14.09
65272;BMP280;51868;48.812;8.198;2023-05-16T13:49:13;100556.19;;;14.24
65272;BMP280;51868;48.812;8.198;2023-05-16T13:51:41;100550.97;;;14.34
65272;BMP280;51868;48.812;8.198;2023-05-16T13:54:09;100554.06;;;14.42
65272;BMP280;51868;48.812;8.198;2023-05-16T13:56:37;100550.75;;;14.48
65272;BMP280;51868;48.812;8.198;2023-05-16T13:59:05;100555.88;;;14.54
65272;BMP280;51868;48.812;8.198;2023-05-16T14:01:37;100567.97;;;14.60
65272;BMP280;51868;48.812;8.198;2023-05-16T14:04:05;100574.34;;;14.63
65272;BMP280;51868;48.812;8.198;2023-05-16T14:06:33;100572.25;;;14.63
65272;BMP280;51868;48.812;8.198;2023-05-16T14:09:01;100579.22;;;14.62
65272;BMP280;51868;48.812;8.198;2023-05-16T14:11:28;100574.47;;;14.67
65272;BMP280;51868;48.812;8.198;2023-05-16T14:13:56;100564.81;;;14.70
65272;BMP280;51868;48.812;8.198;2023-05-16T14:16:25;100571.19;;;14.73